sensor_id;sensor_type;location;lat;lon;timestamp;temperature;humidity
69492;DHT22;56692;52.016;4.356;2023-04-15T00:00:37;17.20;48.00
69492;DHT22;56692;52.016;4.356;2023-04-15T00:03:03;17.20;48.10
69492;DHT22;56692;52.016;4.356;2023-04-15T00:05:30;17.20;47.80
69492;DHT22;56692;52.016;4.356;2023-04-15T00:07:56;17.20;48.00
69492;DHT22;56692;52.016;4.356;2023-04-15T00:10:22;17.20;48.00
69492;DHT22;56692;52.016;4.356;2023-04-15T00:12:47;17.20;48.00
69492;DHT22;56692;52.016;4.356;2023-04-15T00:15:13;17.20;47.10
69492;DHT22;56692;52.016;4.356;2023-04-15T00:17:39;17.10;48.00
69492;DHT22;56692;52.016;4.356;2023-04-15T00:20:05;17.10;47.90
69492;DHT22;56692;52.016;4.356;2023-04-15T00:22:31;17.10;48.00
69492;DHT22;56692;52.016;4.356;2023-04-15T00:24:57;17.10;48.00
69492;DHT22;56692;52.016;4.356;2023-04-15T00:27:22;17.10;47.90
69492;DHT22;56692;52.016;4.356;2023-04-15T00:29:48;17.10;47.90
69492;DHT22;56692;52.016;4.356;2023-04-15T00:32:14;17.10;47.80
69492;DHT22;56692;52.016;4.356;2023-04-15T00:34:40;17.10;47.90
69492;DHT22;56692;52.016;4.356;2023-04-15T00:37:08;17.10;47.80
69492;DHT22;56692;52.016;4.356;2023-04-15T00:39:34;17.10;47.80
69492;DHT22;56692;52.016;4.356;2023-04-15T00:42:01;17.10;47.90
69492;DHT22;56692;52.016;4.356;2023-04-15T00:44:27;17.10;47.80
69492;DHT22;56692;52.016;4.356;2023-04-15T00:46:53;17.00;47.80
69492;DHT22;56692;52.016;4.356;2023-04-15T00:49:19;17.10;47.80
69492;DHT22;56692;52.016;4.356;2023-04-15T00:51:45;17.00;47.80
69492;DHT22;56692;52.016;4.356;2023-04-15T00:54:11;17.00;47.50
69492;DHT22;56692;52.016;4.356;2023-04-15T00:56:37;17.00;47.60
69492;DHT22;56692;52.016;4.356;2023-04-15T00:59:07;17.00;47.60
69492;DHT22;56692;52.016;4.356;2023-04-15T01:01:34;17.00;47.80
69492;DHT22;56692;52.016;4.356;2023-04-15T01:04:00;17.00;47.80
69492;DHT22;56692;52.016;4.356;2023-04-15T01:06:26;17.00;47.70
69492;DHT22;56692;52.016;4.356;2023-04-15T01:08:53;17.00;47.70
69492;DHT22;56692;52.016;4.356;2023-04-15T01:11:20;16.90;47.50
69492;DHT22;56692;52.016;4.356;2023-04-15T01:13:46;16.90;47.70
69492;DHT22;56692;52.016;4.356;2023-04-15T01:16:13;17.00;47.60
69492;DHT22;56692;52.016;4.356;2023-04-15T01:18:39;16.90;47.30
69492;DHT22;56692;52.016;4.356;2023-04-15T01:21:06;16.90;47.60
69492;DHT22;56692;52.016;4.356;2023-04-15T01:23:34;16.90;47.50
69492;DHT22;56692;52.016;4.356;2023-04-15T01:26:01;16.90;47.60
69492;DHT22;56692;52.016;4.356;2023-04-15T01:28:28;16.90;47.60
69492;DHT22;56692;52.016;4.356;2023-04-15T01:31:11;16.90;47.40
69492;DHT22;56692;52.016;4.356;2023-04-15T01:33:39;16.90;47.70
69492;DHT22;56692;52.016;4.356;2023-04-15T01:36:06;16.90;47.50
69492;DHT22;56692;52.016;4.356;2023-04-15T01:38:33;16.90;47.60
69492;DHT22;56692;52.016;4.356;2023-04-15T01:40:59;16.80;47.60
69492;DHT22;56692;52.016;4.356;2023-04-15T01:43:25;16.80;47.60
69492;DHT22;56692;52.016;4.356;2023-04-15T01:45:51;16.90;47.40
69492;DHT22;56692;52.016;4.356;2023-04-15T01:48:17;16.80;47.50
69492;DHT22;56692;52.016;4.356;2023-04-15T01:50:43;16.80;47.30
69492;DHT22;56692;52.016;4.356;2023-04-15T01:53:08;16.80;47.40
69492;DHT22;56692;52.016;4.356;2023-04-15T01:55:34;16.80;47.30
69492;DHT22;56692;52.016;4.356;2023-04-15T01:58:00;16.80;47.50
69492;DHT22;56692;52.016;4.356;2023-04-15T02:00:26;16.80;47.40
69492;DHT22;56692;52.016;4.356;2023-04-15T02:02:51;16.80;47.40
69492;DHT22;56692;52.016;4.356;2023-04-15T02:05:17;16.70;47.40
69492;DHT22;56692;52.016;4.356;2023-04-15T02:07:43;16.80;47.50
69492;DHT22;56692;52.016;4.356;2023-04-15T02:10:09;16.80;47.40
69492;DHT22;56692;52.016;4.356;2023-04-15T02:12:36;16.80;47.40
69492;DHT22;56692;52.016;4.356;2023-04-15T02:15:01;16.80;47.30
69492;DHT22;56692;52.016;4.356;2023-04-15T02:17:27;16.70;47.40
69492;DHT22;56692;52.016;4.356;2023-04-15T02:19:55;16.70;47.30
69492;DHT22;56692;52.016;4.356;2023-04-15T02:22:21;16.70;47.50
69492;DHT22;56692;52.016;4.356;2023-04-15T02:24:47;16.70;47.50
69492;DHT22;56692;52.016;4.356;2023-04-15T02:27:16;16.70;47.40
69492;DHT22;56692;52.016;4.356;2023-04-15T02:29:43;16.70;47.50
69492;DHT22;56692;52.016;4.356;2023-04-15T02:32:13;16.60;47.40
69492;DHT22;56692;52.016;4.356;2023-04-15T02:34:39;16.70;47.30
69492;DHT22;56692;52.016;4.356;2023-04-15T02:37:07;16.60;47.40
69492;DHT22;56692;52.016;4.356;2023-04-15T02:39:33;16.60;47.40
69492;DHT22;56692;52.016;4.356;2023-04-15T02:41:59;16.60;47.60
69492;DHT22;56692;52.016;4.356;2023-04-15T02:44:25;16.60;47.60
69492;DHT22;56692;52.016;4.356;2023-04-15T02:46:52;16.60;47.50
69492;DHT22;56692;52.016;4.356;2023-04-15T02:49:19;16.60;47.10
69492;DHT22;56692;52.016;4.356;2023-04-15T02:51:45;16.60;47.40
69492;DHT22;56692;52.016;4.356;2023-04-15T02:54:17;16.60;47.40
69492;DHT22;56692;52.016;4.356;2023-04-15T02:56:43;16.60;47.60
69492;DHT22;56692;52.016;4.356;2023-04-15T02:59:09;16.60;47.50
69492;DHT22;56692;52.016;4.356;2023-04-15T03:01:35;16.60;47.30
69492;DHT22;56692;52.016;4.356;2023-04-15T03:04:01;16.60;47.60
69492;DHT22;56692;52.016;4.356;2023-04-15T03:06:27;16.60;47.60
69492;DHT22;56692;52.016;4.356;2023-04-15T03:08:52;16.60;47.60
69492;DHT22;56692;52.016;4.356;2023-04-15T03:11:19;16.60;47.50
69492;DHT22;56692;52.016;4.356;2023-04-15T03:13:45;16.50;47.50
69492;DHT22;56692;52.016;4.356;2023-04-15T03:16:11;16.60;47.50
69492;DHT22;56692;52.016;4.356;2023-04-15T03:18:37;16.50;47.40
69492;DHT22;56692;52.016;4.356;2023-04-15T03:21:03;16.50;47.30
69492;DHT22;56692;52.016;4.356;2023-04-15T03:23:30;16.50;47.50
69492;DHT22;56692;52.016;4.356;2023-04-15T03:25:56;16.40;47.70
69492;DHT22;56692;52.016;4.356;2023-04-15T03:28:22;16.40;47.70
69492;DHT22;56692;52.016;4.356;2023-04-15T03:30:48;16.50;47.70
69492;DHT22;56692;52.016;4.356;2023-04-15T03:33:14;16.50;47.70
69492;DHT22;56692;52.016;4.356;2023-04-15T03:35:39;16.50;47.50
69492;DHT22;56692;52.016;4.356;2023-04-15T03:38:05;16.50;47.70
69492;DHT22;56692;52.016;4.356;2023-04-15T03:40:31;16.50;47.50
69492;DHT22;56692;52.016;4.356;2023-04-15T03:42:57;16.50;47.60
69492;DHT22;56692;52.016;4.356;2023-04-15T03:45:22;16.50;47.70
69492;DHT22;56692;52.016;4.356;2023-04-15T03:47:48;16.40;47.70
69492;DHT22;56692;52.016;4.356;2023-04-15T03:50:14;16.40;47.70
69492;DHT22;56692;52.016;4.356;2023-04-15T03:52:40;16.40;47.70
69492;DHT22;56692;52.016;4.356;2023-04-15T03:55:06;16.40;47.70
69492;DHT22;56692;52.016;4.356;2023-04-15T03:57:33;16.40;47.60
69492;DHT22;56692;52.016;4.356;2023-04-15T04:00:03;16.40;47.70
69492;DHT22;56692;52.016;4.356;2023-04-15T04:02:29;16.40;47.50
69492;DHT22;56692;52.016;4.356;2023-04-15T04:04:55;16.40;47.60
69492;DHT22;56692;52.016;4.356;2023-04-15T04:07:23;16.40;47.60
69492;DHT22;56692;52.016;4.356;2023-04-15T04:09:49;16.40;47.70
69492;DHT22;56692;52.016;4.356;2023-04-15T04:12:14;16.40;47.70
69492;DHT22;56692;52.016;4.356;2023-04-15T04:14:41;16.30;47.60
69492;DHT22;56692;52.016;4.356;2023-04-15T04:17:06;16.30;47.70
69492;DHT22;56692;52.016;4.356;2023-04-15T04:19:32;16.30;47.80
69492;DHT22;56692;52.016;4.356;2023-04-15T04:21:58;16.30;47.80
69492;DHT22;56692;52.016;4.356;2023-04-15T04:24:24;16.30;47.90
69492;DHT22;56692;52.016;4.356;2023-04-15T04:26:50;16.30;47.70
69492;DHT22;56692;52.016;4.356;2023-04-15T04:29:15;16.30;47.70
69492;DHT22;56692;52.016;4.356;2023-04-15T04:31:41;16.30;47.80
69492;DHT22;56692;52.016;4.356;2023-04-15T04:34:07;16.30;47.80
69492;DHT22;56692;52.016;4.356;2023-04-15T04:36:32;16.30;47.90
69492;DHT22;56692;52.016;4.356;2023-04-15T04:38:59;16.30;47.80
69492;DHT22;56692;52.016;4.356;2023-04-15T04:41:25;16.20;47.90
69492;DHT22;56692;52.016;4.356;2023-04-15T04:43:51;16.20;47.90
69492;DHT22;56692;52.016;4.356;2023-04-15T04:46:17;16.20;47.70
69492;DHT22;56692;52.016;4.356;2023-04-15T04:48:42;16.20;47.90
69492;DHT22;56692;52.016;4.356;2023-04-15T04:51:09;16.20;48.00
69492;DHT22;56692;52.016;4.356;2023-04-15T04:53:35;16.20;48.10
69492;DHT22;56692;52.016;4.356;2023-04-15T04:56:02;16.20;48.10
69492;DHT22;56692;52.016;4.356;2023-04-15T04:58:28;16.20;47.90
69492;DHT22;56692;52.016;4.356;2023-04-15T05:00:53;16.20;48.00
69492;DHT22;56692;52.016;4.356;2023-04-15T05:03:20;16.20;48.00
69492;DHT22;56692;52.016;4.356;2023-04-15T05:05:46;16.20;48.00
69492;DHT22;56692;52.016;4.356;2023-04-15T05:08:14;16.20;48.10
69492;DHT22;56692;52.016;4.356;2023-04-15T05:10:39;16.10;48.00
69492;DHT22;56692;52.016;4.356;2023-04-15T05:13:05;16.20;48.10
69492;DHT22;56692;52.016;4.356;2023-04-15T05:15:31;16.10;48.10
69492;DHT22;56692;52.016;4.356;2023-04-15T05:17:57;16.10;48.20
69492;DHT22;56692;52.016;4.356;2023-04-15T05:20:23;16.10;48.20
69492;DHT22;56692;52.016;4.356;2023-04-15T05:22:48;16.10;48.10
69492;DHT22;56692;52.016;4.356;2023-04-15T05:25:14;16.10;48.20
69492;DHT22;56692;52.016;4.356;2023-04-15T05:27:40;16.10;48.20
69492;DHT22;56692;52.016;4.356;2023-04-15T05:30:06;16.10;48.20
69492;DHT22;56692;52.016;4.356;2023-04-15T05:32:33;16.10;48.20
69492;DHT22;56692;52.016;4.356;2023-04-15T05:34:59;16.10;48.10
69492;DHT22;56692;52.016;4.356;2023-04-15T05:37:24;16.10;48.30
69492;DHT22;56692;52.016;4.356;2023-04-15T05:39:50;16.10;48.30
69492;DHT22;56692;52.016;4.356;2023-04-15T05:42:16;16.00;48.50
69492;DHT22;56692;52.016;4.356;2023-04-15T05:44:42;16.00;48.50
69492;DHT22;56692;52.016;4.356;2023-04-15T05:47:08;16.00;48.30
69492;DHT22;56692;52.016;4.356;2023-04-15T05:49:34;16.00;48.40
69492;DHT22;56692;52.016;4.356;2023-04-15T05:52:00;16.00;48.40
69492;DHT22;56692;52.016;4.356;2023-04-15T05:54:26;16.00;48.40
69492;DHT22;56692;52.016;4.356;2023-04-15T05:56:52;16.00;48.30
69492;DHT22;56692;52.016;4.356;2023-04-15T05:59:18;16.00;48.50
69492;DHT22;56692;52.016;4.356;2023-04-15T06:01:43;16.00;48.40
69492;DHT22;56692;52.016;4.356;2023-04-15T06:04:09;16.00;48.40
69492;DHT22;56692;52.016;4.356;2023-04-15T06:06:36;16.00;48.50
69492;DHT22;56692;52.016;4.356;2023-04-15T06:09:03;16.00;48.40
69492;DHT22;56692;52.016;4.356;2023-04-15T06:11:29;16.00;48.40
69492;DHT22;56692;52.016;4.356;2023-04-15T06:13:55;16.00;48.40
69492;DHT22;56692;52.016;4.356;2023-04-15T06:16:21;16.00;48.40
69492;DHT22;56692;52.016;4.356;2023-04-15T06:18:48;16.00;48.30
69492;DHT22;56692;52.016;4.356;2023-04-15T06:21:14;16.00;48.40
69492;DHT22;56692;52.016;4.356;2023-04-15T06:23:40;16.00;48.40
69492;DHT22;56692;52.016;4.356;2023-04-15T06:26:06;16.00;48.40
69492;DHT22;56692;52.016;4.356;2023-04-15T06:28:31;16.00;48.10
69492;DHT22;56692;52.016;4.356;2023-04-15T06:30:57;16.00;48.60
69492;DHT22;56692;52.016;4.356;2023-04-15T06:33:23;16.00;48.50
69492;DHT22;56692;52.016;4.356;2023-04-15T06:35:49;16.00;48.50
69492;DHT22;56692;52.016;4.356;2023-04-15T06:38:15;16.00;48.60
69492;DHT22;56692;52.016;4.356;2023-04-15T06:40:41;16.00;48.60
69492;DHT22;56692;52.016;4.356;2023-04-15T06:43:07;16.00;48.50
69492;DHT22;56692;52.016;4.356;2023-04-15T06:45:33;16.00;48.60
69492;DHT22;56692;52.016;4.356;2023-04-15T06:47:59;16.00;48.50
69492;DHT22;56692;52.016;4.356;2023-04-15T06:50:25;16.00;48.60
69492;DHT22;56692;52.016;4.356;2023-04-15T06:52:52;16.00;48.60
69492;DHT22;56692;52.016;4.356;2023-04-15T06:55:18;16.00;48.60
69492;DHT22;56692;52.016;4.356;2023-04-15T06:57:44;16.00;48.50
69492;DHT22;56692;52.016;4.356;2023-04-15T07:00:10;16.00;48.60
69492;DHT22;56692;52.016;4.356;2023-04-15T07:02:36;16.00;48.60
69492;DHT22;56692;52.016;4.356;2023-04-15T07:05:02;16.10;48.70
69492;DHT22;56692;52.016;4.356;2023-04-15T07:07:29;16.10;48.60
69492;DHT22;56692;52.016;4.356;2023-04-15T07:09:55;16.10;48.70
69492;DHT22;56692;52.016;4.356;2023-04-15T07:12:21;16.10;48.80
69492;DHT22;56692;52.016;4.356;2023-04-15T07:14:47;16.20;48.80
69492;DHT22;56692;52.016;4.356;2023-04-15T07:17:14;16.20;48.90
69492;DHT22;56692;52.016;4.356;2023-04-15T07:19:39;16.20;49.10
69492;DHT22;56692;52.016;4.356;2023-04-15T07:22:05;16.30;49.20
69492;DHT22;56692;52.016;4.356;2023-04-15T07:24:31;16.30;49.20
69492;DHT22;56692;52.016;4.356;2023-04-15T07:26:56;16.30;49.20
69492;DHT22;56692;52.016;4.356;2023-04-15T07:29:23;16.30;49.70
69492;DHT22;56692;52.016;4.356;2023-04-15T07:31:49;16.30;50.00
69492;DHT22;56692;52.016;4.356;2023-04-15T07:34:15;16.30;50.20
69492;DHT22;56692;52.016;4.356;2023-04-15T07:36:41;16.30;50.40
69492;DHT22;56692;52.016;4.356;2023-04-15T07:39:07;16.30;50.40
69492;DHT22;56692;52.016;4.356;2023-04-15T07:41:32;16.40;50.20
69492;DHT22;56692;52.016;4.356;2023-04-15T07:43:58;16.40;50.40
69492;DHT22;56692;52.016;4.356;2023-04-15T07:46:25;16.40;50.70
69492;DHT22;56692;52.016;4.356;2023-04-15T07:48:52;16.40;50.50
69492;DHT22;56692;52.016;4.356;2023-04-15T07:51:18;16.40;50.50
69492;DHT22;56692;52.016;4.356;2023-04-15T07:53:46;16.40;50.60
69492;DHT22;56692;52.016;4.356;2023-04-15T07:56:11;16.40;50.60
69492;DHT22;56692;52.016;4.356;2023-04-15T07:58:37;16.40;50.60
69492;DHT22;56692;52.016;4.356;2023-04-15T08:01:03;16.40;50.60
69492;DHT22;56692;52.016;4.356;2023-04-15T08:03:29;16.40;50.70
69492;DHT22;56692;52.016;4.356;2023-04-15T08:05:56;16.40;50.70
69492;DHT22;56692;52.016;4.356;2023-04-15T08:08:22;16.50;50.70
69492;DHT22;56692;52.016;4.356;2023-04-15T08:10:48;16.40;50.70
69492;DHT22;56692;52.016;4.356;2023-04-15T08:13:14;16.50;50.80
69492;DHT22;56692;52.016;4.356;2023-04-15T08:15:40;16.50;50.70
69492;DHT22;56692;52.016;4.356;2023-04-15T08:18:06;16.50;50.70
69492;DHT22;56692;52.016;4.356;2023-04-15T08:20:32;16.50;50.80
69492;DHT22;56692;52.016;4.356;2023-04-15T08:22:58;16.50;50.80
69492;DHT22;56692;52.016;4.356;2023-04-15T08:25:23;16.50;50.90
69492;DHT22;56692;52.016;4.356;2023-04-15T08:27:49;16.50;50.90
69492;DHT22;56692;52.016;4.356;2023-04-15T08:30:15;16.50;51.00
69492;DHT22;56692;52.016;4.356;2023-04-15T08:32:42;16.50;51.00
69492;DHT22;56692;52.016;4.356;2023-04-15T08:35:10;16.50;50.90
69492;DHT22;56692;52.016;4.356;2023-04-15T08:37:36;16.60;51.00
69492;DHT22;56692;52.016;4.356;2023-04-15T08:40:02;16.60;51.00
69492;DHT22;56692;52.016;4.356;2023-04-15T08:42:31;16.60;51.00
69492;DHT22;56692;52.016;4.356;2023-04-15T08:44:59;16.60;51.00
69492;DHT22;56692;52.016;4.356;2023-04-15T08:47:29;16.60;51.20
69492;DHT22;56692;52.016;4.356;2023-04-15T08:49:57;16.70;51.50
69492;DHT22;56692;52.016;4.356;2023-04-15T08:52:26;16.70;51.60
69492;DHT22;56692;52.016;4.356;2023-04-15T08:54:56;16.70;51.60
69492;DHT22;56692;52.016;4.356;2023-04-15T08:57:27;16.70;51.70
69492;DHT22;56692;52.016;4.356;2023-04-15T08:59:55;16.70;51.70
69492;DHT22;56692;52.016;4.356;2023-04-15T09:02:20;16.70;51.90
69492;DHT22;56692;52.016;4.356;2023-04-15T09:04:47;16.70;51.90
69492;DHT22;56692;52.016;4.356;2023-04-15T09:07:13;16.70;51.80
69492;DHT22;56692;52.016;4.356;2023-04-15T09:09:39;16.70;51.80
69492;DHT22;56692;52.016;4.356;2023-04-15T09:12:07;16.70;52.30
69492;DHT22;56692;52.016;4.356;2023-04-15T09:14:33;16.80;52.20
69492;DHT22;56692;52.016;4.356;2023-04-15T09:17:03;16.80;52.20
69492;DHT22;56692;52.016;4.356;2023-04-15T09:19:30;16.80;52.10
69492;DHT22;56692;52.016;4.356;2023-04-15T09:22:00;16.80;52.00
69492;DHT22;56692;52.016;4.356;2023-04-15T09:24:38;16.80;51.80
69492;DHT22;56692;52.016;4.356;2023-04-15T09:27:05;16.80;52.00
69492;DHT22;56692;52.016;4.356;2023-04-15T09:29:31;16.80;52.00
69492;DHT22;56692;52.016;4.356;2023-04-15T09:32:12;16.80;51.90
69492;DHT22;56692;52.016;4.356;2023-04-15T09:34:38;16.80;51.90
69492;DHT22;56692;52.016;4.356;2023-04-15T09:37:04;16.80;52.10
69492;DHT22;56692;52.016;4.356;2023-04-15T09:39:47;16.80;52.00
69492;DHT22;56692;52.016;4.356;2023-04-15T09:42:13;16.80;52.10
69492;DHT22;56692;52.016;4.356;2023-04-15T09:44:38;16.80;51.90
69492;DHT22;56692;52.016;4.356;2023-04-15T09:47:04;16.80;51.90
69492;DHT22;56692;52.016;4.356;2023-04-15T09:49:30;16.80;51.80
69492;DHT22;56692;52.016;4.356;2023-04-15T09:51:59;16.80;51.80
69492;DHT22;56692;52.016;4.356;2023-04-15T09:54:35;16.80;51.80
69492;DHT22;56692;52.016;4.356;2023-04-15T09:57:08;16.80;51.70
69492;DHT22;56692;52.016;4.356;2023-04-15T09:59:37;16.80;51.70
69492;DHT22;56692;52.016;4.356;2023-04-15T10:02:06;16.80;51.60
69492;DHT22;56692;52.016;4.356;2023-04-15T10:04:34;16.80;51.60
69492;DHT22;56692;52.016;4.356;2023-04-15T10:07:03;16.80;51.40
69492;DHT22;56692;52.016;4.356;2023-04-15T10:09:30;16.80;51.40
69492;DHT22;56692;52.016;4.356;2023-04-15T10:11:56;16.80;51.50
69492;DHT22;56692;52.016;4.356;2023-04-15T10:14:22;16.80;51.40
69492;DHT22;56692;52.016;4.356;2023-04-15T10:16:50;16.80;51.40
69492;DHT22;56692;52.016;4.356;2023-04-15T10:19:20;16.80;51.30
69492;DHT22;56692;52.016;4.356;2023-04-15T10:21:49;16.80;51.30
69492;DHT22;56692;52.016;4.356;2023-04-15T10:24:15;16.80;51.30
69492;DHT22;56692;52.016;4.356;2023-04-15T10:26:41;16.90;51.30
69492;DHT22;56692;52.016;4.356;2023-04-15T10:29:09;16.90;51.20
69492;DHT22;56692;52.016;4.356;2023-04-15T10:31:35;16.90;51.00
69492;DHT22;56692;52.016;4.356;2023-04-15T10:34:03;16.90;50.90
69492;DHT22;56692;52.016;4.356;2023-04-15T10:36:31;16.90;50.90
69492;DHT22;56692;52.016;4.356;2023-04-15T10:38:57;16.90;51.00
69492;DHT22;56692;52.016;4.356;2023-04-15T10:41:25;16.90;51.20
69492;DHT22;56692;52.016;4.356;2023-04-15T10:43:53;16.90;51.20
69492;DHT22;56692;52.016;4.356;2023-04-15T10:46:41;17.00;51.30
69492;DHT22;56692;52.016;4.356;2023-04-15T10:49:23;17.00;51.30
69492;DHT22;56692;52.016;4.356;2023-04-15T10:51:57;17.00;50.40
69492;DHT22;56692;52.016;4.356;2023-04-15T11:02:44;17.00;50.80
69492;DHT22;56692;52.016;4.356;2023-04-15T11:05:15;17.00;50.90
69492;DHT22;56692;52.016;4.356;2023-04-15T11:07:55;17.00;51.00
69492;DHT22;56692;52.016;4.356;2023-04-15T11:12:57;17.00;51.10
69492;DHT22;56692;52.016;4.356;2023-04-15T11:18:22;17.00;50.80
69492;DHT22;56692;52.016;4.356;2023-04-15T11:20:53;17.00;50.90
69492;DHT22;56692;52.016;4.356;2023-04-15T11:23:40;17.00;50.70
69492;DHT22;56692;52.016;4.356;2023-04-15T11:26:09;17.00;50.80
69492;DHT22;56692;52.016;4.356;2023-04-15T11:28:40;17.00;50.60
69492;DHT22;56692;52.016;4.356;2023-04-15T11:33:33;17.00;49.40
69492;DHT22;56692;52.016;4.356;2023-04-15T11:35:59;17.00;48.60
69492;DHT22;56692;52.016;4.356;2023-04-15T11:38:25;17.10;49.00
69492;DHT22;56692;52.016;4.356;2023-04-15T11:40:51;17.00;48.10
69492;DHT22;56692;52.016;4.356;2023-04-15T11:43:21;17.00;47.80
69492;DHT22;56692;52.016;4.356;2023-04-15T11:45:54;17.00;47.60
69492;DHT22;56692;52.016;4.356;2023-04-15T11:48:25;17.00;47.20
69492;DHT22;56692;52.016;4.356;2023-04-15T11:51:07;17.00;47.60
69492;DHT22;56692;52.016;4.356;2023-04-15T11:53:36;17.00;48.10
69492;DHT22;56692;52.016;4.356;2023-04-15T11:56:02;17.00;48.30
69492;DHT22;56692;52.016;4.356;2023-04-15T11:58:29;17.10;48.80
69492;DHT22;56692;52.016;4.356;2023-04-15T12:00:59;17.10;48.90
69492;DHT22;56692;52.016;4.356;2023-04-15T12:03:27;17.10;49.20
69492;DHT22;56692;52.016;4.356;2023-04-15T12:06:10;17.10;49.10
69492;DHT22;56692;52.016;4.356;2023-04-15T12:16:35;17.10;48.90
69492;DHT22;56692;52.016;4.356;2023-04-15T12:19:04;17.20;48.90
69492;DHT22;56692;52.016;4.356;2023-04-15T12:21:34;17.20;48.70
69492;DHT22;56692;52.016;4.356;2023-04-15T12:24:08;17.20;48.20
69492;DHT22;56692;52.016;4.356;2023-04-15T12:26:46;17.10;48.30
69492;DHT22;56692;52.016;4.356;2023-04-15T12:29:14;17.10;48.40
69492;DHT22;56692;52.016;4.356;2023-04-15T12:32:13;17.10;48.40
69492;DHT22;56692;52.016;4.356;2023-04-15T12:34:41;17.20;48.70
69492;DHT22;56692;52.016;4.356;2023-04-15T12:37:10;17.20;48.90
69492;DHT22;56692;52.016;4.356;2023-04-15T12:39:37;17.20;49.20
69492;DHT22;56692;52.016;4.356;2023-04-15T12:42:04;17.30;49.10
69492;DHT22;56692;52.016;4.356;2023-04-15T12:44:30;17.30;49.10
69492;DHT22;56692;52.016;4.356;2023-04-15T12:46:57;17.30;49.40
69492;DHT22;56692;52.016;4.356;2023-04-15T12:49:24;17.30;49.60
69492;DHT22;56692;52.016;4.356;2023-04-15T12:51:53;17.40;49.60
69492;DHT22;56692;52.016;4.356;2023-04-15T12:54:19;17.40;50.00
69492;DHT22;56692;52.016;4.356;2023-04-15T12:56:47;17.40;49.90
69492;DHT22;56692;52.016;4.356;2023-04-15T12:59:13;17.40;50.10
69492;DHT22;56692;52.016;4.356;2023-04-15T13:01:39;17.40;50.10
69492;DHT22;56692;52.016;4.356;2023-04-15T13:04:06;17.40;50.50
69492;DHT22;56692;52.016;4.356;2023-04-15T13:06:31;17.50;50.70
69492;DHT22;56692;52.016;4.356;2023-04-15T13:09:01;17.50;50.70
69492;DHT22;56692;52.016;4.356;2023-04-15T13:11:28;17.50;50.40
69492;DHT22;56692;52.016;4.356;2023-04-15T13:13:59;17.50;50.70
69492;DHT22;56692;52.016;4.356;2023-04-15T13:16:25;17.60;50.70
69492;DHT22;56692;52.016;4.356;2023-04-15T13:18:51;17.60;50.80
69492;DHT22;56692;52.016;4.356;2023-04-15T13:21:18;17.60;50.70
69492;DHT22;56692;52.016;4.356;2023-04-15T13:23:43;17.60;51.00
69492;DHT22;56692;52.016;4.356;2023-04-15T13:26:09;17.60;51.00
69492;DHT22;56692;52.016;4.356;2023-04-15T13:28:35;17.70;51.20
69492;DHT22;56692;52.016;4.356;2023-04-15T13:31:01;17.70;50.90
69492;DHT22;56692;52.016;4.356;2023-04-15T13:33:27;17.70;51.00
69492;DHT22;56692;52.016;4.356;2023-04-15T13:35:53;17.70;51.10
69492;DHT22;56692;52.016;4.356;2023-04-15T13:38:19;17.80;51.00
69492;DHT22;56692;52.016;4.356;2023-04-15T13:40:45;17.80;51.20
69492;DHT22;56692;52.016;4.356;2023-04-15T13:43:11;17.80;51.00
69492;DHT22;56692;52.016;4.356;2023-04-15T13:45:38;17.80;51.50
69492;DHT22;56692;52.016;4.356;2023-04-15T13:48:03;17.80;51.10
69492;DHT22;56692;52.016;4.356;2023-04-15T13:50:29;17.90;51.00
69492;DHT22;56692;52.016;4.356;2023-04-15T13:52:55;17.90;51.20
69492;DHT22;56692;52.016;4.356;2023-04-15T13:55:21;17.90;51.30
69492;DHT22;56692;52.016;4.356;2023-04-15T13:57:47;17.90;51.30
69492;DHT22;56692;52.016;4.356;2023-04-15T14:00:13;18.00;51.20
69492;DHT22;56692;52.016;4.356;2023-04-15T14:02:39;18.00;51.20
69492;DHT22;56692;52.016;4.356;2023-04-15T14:05:06;18.00;51.00
69492;DHT22;56692;52.016;4.356;2023-04-15T14:07:32;18.00;51.20
69492;DHT22;56692;52.016;4.356;2023-04-15T14:09:59;18.00;50.70
69492;DHT22;56692;52.016;4.356;2023-04-15T14:12:25;18.00;49.10
69492;DHT22;56692;52.016;4.356;2023-04-15T14:14:51;18.00;47.80
69492;DHT22;56692;52.016;4.356;2023-04-15T14:17:17;18.00;47.20
69492;DHT22;56692;52.016;4.356;2023-04-15T14:19:42;17.90;47.00
69492;DHT22;56692;52.016;4.356;2023-04-15T14:22:11;17.90;46.50
69492;DHT22;56692;52.016;4.356;2023-04-15T14:24:36;17.80;46.50
69492;DHT22;56692;52.016;4.356;2023-04-15T14:27:02;17.80;46.40
69492;DHT22;56692;52.016;4.356;2023-04-15T14:29:28;17.80;45.90
69492;DHT22;56692;52.016;4.356;2023-04-15T14:31:55;17.80;45.80
69492;DHT22;56692;52.016;4.356;2023-04-15T14:34:21;17.80;46.50
69492;DHT22;56692;52.016;4.356;2023-04-15T14:36:50;17.80;46.40
69492;DHT22;56692;52.016;4.356;2023-04-15T14:39:18;17.80;46.70
69492;DHT22;56692;52.016;4.356;2023-04-15T14:41:44;17.80;46.70
69492;DHT22;56692;52.016;4.356;2023-04-15T14:44:09;17.80;46.80
69492;DHT22;56692;52.016;4.356;2023-04-15T14:46:37;17.80;46.70
69492;DHT22;56692;52.016;4.356;2023-04-15T14:49:03;17.80;46.90
69492;DHT22;56692;52.016;4.356;2023-04-15T14:51:29;17.70;47.10
69492;DHT22;56692;52.016;4.356;2023-04-15T14:53:56;17.80;47.20
69492;DHT22;56692;52.016;4.356;2023-04-15T14:56:22;17.70;46.80
69492;DHT22;56692;52.016;4.356;2023-04-15T14:58:48;17.70;47.00
69492;DHT22;56692;52.016;4.356;2023-04-15T15:01:13;17.70;46.90
69492;DHT22;56692;52.016;4.356;2023-04-15T15:03:39;17.70;46.80
69492;DHT22;56692;52.016;4.356;2023-04-15T15:06:05;17.70;47.00
69492;DHT22;56692;52.016;4.356;2023-04-15T15:08:31;17.60;46.70
69492;DHT22;56692;52.016;4.356;2023-04-15T15:10:57;17.60;46.70
69492;DHT22;56692;52.016;4.356;2023-04-15T15:13:22;17.50;46.90
69492;DHT22;56692;52.016;4.356;2023-04-15T15:15:48;17.50;46.70
69492;DHT22;56692;52.016;4.356;2023-04-15T15:18:15;17.50;47.00
69492;DHT22;56692;52.016;4.356;2023-04-15T15:20:43;17.50;46.90
69492;DHT22;56692;52.016;4.356;2023-04-15T15:23:09;17.60;46.90
69492;DHT22;56692;52.016;4.356;2023-04-15T15:25:34;17.60;46.70
69492;DHT22;56692;52.016;4.356;2023-04-15T15:28:00;17.60;47.10
69492;DHT22;56692;52.016;4.356;2023-04-15T15:30:26;17.60;46.60
69492;DHT22;56692;52.016;4.356;2023-04-15T15:32:51;17.60;46.60
69492;DHT22;56692;52.016;4.356;2023-04-15T15:35:17;17.50;46.40
69492;DHT22;56692;52.016;4.356;2023-04-15T15:37:44;17.50;46.40
69492;DHT22;56692;52.016;4.356;2023-04-15T15:40:10;17.40;46.40
69492;DHT22;56692;52.016;4.356;2023-04-15T15:42:36;17.40;47.10
69492;DHT22;56692;52.016;4.356;2023-04-15T15:45:03;17.50;47.80
69492;DHT22;56692;52.016;4.356;2023-04-15T15:47:30;17.50;48.00
69492;DHT22;56692;52.016;4.356;2023-04-15T15:49:56;17.60;47.80
69492;DHT22;56692;52.016;4.356;2023-04-15T15:52:23;17.70;48.00